Time;durP1;ratioP1;P1;durP2;ratioP2;P2;SDS_P1;SDS_P2;PMS_P1;PMS_P2;Temp;Humidity;BMP_temperature;BMP_pressure;BME280_temperature;BME280_humidity;BME280_pressure;Samples;Min_cycle;Max_cycle;Signal;HPM_P1;HPM_P2
2023/01/21 00:01:12;;;;;;;30.62;13.20;;;;;;;0.04;100.00;98053.44;4532882;31;20115;-73
2023/01/21 00:03:40;;;;;;;27.70;12.65;;;;;;;0.03;100.00;98056.94;4533065;31;20126;-72
2023/01/21 00:06:08;;;;;;;25.80;11.30;;;;;;;-0.03;100.00;98052.97;4532991;31;20113;-73
2023/01/21 00:08:35;;;;;;;21.50;10.02;;;;;;;0.02;100.00;98042.41;4532719;31;20137;-72
2023/01/21 00:11:10;;;;;;;29.23;13.30;;;;;;;-0.06;100.00;98039.44;4532858;31;20606;-72
2023/01/21 00:13:37;;;;;;;25.20;11.95;;;;;;;-0.13;100.00;98043.28;4532818;31;20104;-72
2023/01/21 00:16:05;;;;;;;30.62;11.80;;;;;;;-0.07;100.00;98056.63;4532947;31;20155;-72
2023/01/21 00:18:32;;;;;;;26.92;12.18;;;;;;;-0.04;100.00;98061.59;4532763;31;20106;-72
2023/01/21 00:21:00;;;;;;;30.40;14.15;;;;;;;-0.02;100.00;98066.66;4532940;31;20532;-72
2023/01/21 00:23:27;;;;;;;26.98;12.40;;;;;;;-0.03;100.00;98057.28;4532807;31;20126;-72
2023/01/21 00:25:59;;;;;;;26.00;12.57;;;;;;;-0.06;100.00;98067.75;4533001;31;20109;-72
2023/01/21 00:28:30;;;;;;;26.15;10.70;;;;;;;-0.02;100.00;98066.66;4531674;31;20075;-72
2023/01/21 00:31:02;;;;;;;30.23;13.02;;;;;;;-0.03;100.00;98063.28;4532932;31;20115;-73
2023/01/21 00:33:30;;;;;;;25.75;11.50;;;;;;;-0.10;100.00;98066.28;4532863;31;20120;-73
2023/01/21 00:36:04;;;;;;;26.42;12.52;;;;;;;-0.13;100.00;98072.44;4532992;31;20471;-72
2023/01/21 00:38:32;;;;;;;27.83;13.48;;;;;;;-0.09;100.00;98068.78;4532438;31;20178;-72
2023/01/21 00:41:01;;;;;;;25.20;11.93;;;;;;;-0.22;100.00;98068.62;4532662;31;20083;-72
2023/01/21 00:43:28;;;;;;;31.60;12.13;;;;;;;-0.09;100.00;98068.78;4532752;31;20095;-72
2023/01/21 00:45:56;;;;;;;29.05;15.02;;;;;;;-0.10;100.00;98068.84;4532838;31;20231;-72
2023/01/21 00:48:24;;;;;;;28.38;12.70;;;;;;;-0.08;100.00;98054.16;4532576;31;20155;-72
2023/01/21 00:50:53;;;;;;;27.50;13.68;;;;;;;-0.17;100.00;98054.66;4532522;31;20123;-72
2023/01/21 00:53:22;;;;;;;32.13;14.00;;;;;;;-0.14;100.00;98060.47;4532295;31;20088;-72
2023/01/21 00:55:49;;;;;;;29.27;11.80;;;;;;;-0.09;100.00;98055.06;4532712;31;20087;-72
2023/01/21 00:58:16;;;;;;;30.12;13.00;;;;;;;-0.06;100.00;98054.88;4532456;31;20103;-72
2023/01/21 01:00:44;;;;;;;27.85;12.75;;;;;;;-0.24;100.00;98044.72;4532307;31;20125;-72
2023/01/21 01:03:11;;;;;;;27.10;12.93;;;;;;;-0.17;100.00;98037.47;4532397;31;20441;-72
2023/01/21 01:05:38;;;;;;;29.08;13.15;;;;;;;-0.07;100.00;98048.09;4532337;31;20133;-72
2023/01/21 01:08:06;;;;;;;29.58;12.77;;;;;;;-0.13;100.00;98046.69;4532264;31;20150;-72
2023/01/21 01:10:36;;;;;;;27.50;10.93;;;;;;;-0.25;100.00;98043.06;4532176;31;20125;-72
2023/01/21 01:13:03;;;;;;;24.75;12.40;;;;;;;-0.19;100.00;98054.75;4532298;31;20109;-72
2023/01/21 01:15:30;;;;;;;27.65;11.63;;;;;;;-0.19;100.00;98058.16;4532160;31;20168;-72
2023/01/21 01:17:57;;;;;;;22.60;11.23;;;;;;;-0.22;100.00;98066.03;4531513;31;20166;-72
2023/01/21 01:20:24;;;;;;;32.83;13.15;;;;;;;-0.19;100.00;98062.47;4532266;31;20155;-72
2023/01/21 01:22:52;;;;;;;29.52;14.30;;;;;;;-0.17;100.00;98073.50;4532118;31;20521;-72
2023/01/21 01:25:19;;;;;;;25.05;11.60;;;;;;;-0.24;100.00;98075.63;4532062;31;20087;-72
2023/01/21 01:27:46;;;;;;;30.37;12.40;;;;;;;-0.21;100.00;98070.28;4532088;31;20100;-72
2023/01/21 01:30:13;;;;;;;29.30;15.63;;;;;;;-0.24;100.00;98062.75;4531997;31;20171;-72
2023/01/21 01:32:41;;;;;;;36.78;15.35;;;;;;;-0.17;100.00;98063.22;4532061;31;20493;-72
2023/01/21 01:35:08;;;;;;;31.50;13.30;;;;;;;-0.19;100.00;98068.44;4531890;31;20095;-73
2023/01/21 01:37:35;;;;;;;26.02;11.48;;;;;;;-0.09;100.00;98057.63;4532272;31;20125;-72
2023/01/21 01:40:03;;;;;;;35.10;16.02;;;;;;;-0.07;100.00;98053.22;4531712;31;20159;-72
2023/01/21 01:42:30;;;;;;;31.83;13.80;;;;;;;-0.11;100.00;98052.56;4532283;31;20126;-72
2023/01/21 01:45:00;;;;;;;36.35;16.67;;;;;;;-0.16;100.00;98057.16;4531827;31;20646;-72
2023/01/21 01:47:36;;;;;;;29.95;13.85;;;;;;;-0.20;100.00;98053.94;4530635;31;20109;-72
2023/01/21 01:50:05;;;;;;;35.50;14.32;;;;;;;-0.12;100.00;98053.50;4530642;31;20170;-72
2023/01/21 01:52:32;;;;;;;27.95;12.45;;;;;;;-0.10;100.00;98059.38;4530503;31;20091;-72
2023/01/21 01:55:00;;;;;;;22.80;11.82;;;;;;;-0.07;100.00;98055.81;4530352;31;20114;-72
2023/01/21 01:57:34;;;;;;;25.42;12.80;;;;;;;-0.10;100.00;98054.22;4531782;31;20142;-72
2023/01/21 02:00:05;;;;;;;24.83;11.48;;;;;;;-0.07;100.00;98060.97;4530213;31;20100;-72
2023/01/21 02:02:38;;;;;;;27.15;12.45;;;;;;;-0.10;100.00;98053.41;4531785;31;20146;-72
2023/01/21 02:05:08;;;;;;;27.10;11.88;;;;;;;0.01;100.00;98058.75;4530104;31;20219;-72
2023/01/21 02:07:39;;;;;;;25.83;12.00;;;;;;;-0.12;100.00;98057.81;4531557;31;20151;-72
2023/01/21 02:10:11;;;;;;;28.23;12.30;;;;;;;-0.07;100.00;98045.50;4522202;31;20203;-72
2023/01/21 02:12:41;;;;;;;25.08;10.32;;;;;;;-0.13;100.00;98051.84;4515559;31;20088;-72
2023/01/21 02:15:08;;;;;;;28.87;13.68;;;;;;;-0.12;100.00;98042.34;4514246;31;20114;-72
2023/01/21 02:17:54;;;;;;;27.87;12.70;;;;;;;-0.18;100.00;98048.69;4514241;31;20139;-72
2023/01/21 02:20:45;;;;;;;22.62;9.98;;;;;;;-0.04;100.00;98042.75;4514067;31;20127;-72
2023/01/21 02:23:22;;;;;;;34.85;13.15;;;;;;;0.03;100.00;98048.38;4528786;31;20441;-72
2023/01/21 02:26:13;;;;;;;26.27;11.38;;;;;;;0.01;100.00;98045.88;4529852;31;20110;-72
2023/01/21 02:28:40;;;;;;;28.62;12.37;;;;;;;-0.05;100.00;98052.22;4532114;31;20106;-72
2023/01/21 02:31:27;;;;;;;29.30;12.32;;;;;;;0.01;100.00;98048.47;4533606;31;20140;-72
2023/01/21 02:34:19;;;;;;;33.72;12.88;;;;;;;0.06;100.00;98049.03;4533858;31;20127;-72
2023/01/21 02:36:55;;;;;;;28.35;13.23;;;;;;;-0.06;100.00;98062.59;4534034;31;20110;-72
2023/01/21 02:39:34;;;;;;;30.88;13.48;;;;;;;0.00;100.00;98062.28;4532035;31;20122;-72
2023/01/21 02:42:04;;;;;;;26.60;11.12;;;;;;;-0.04;100.00;98063.34;4533689;31;20155;-72
2023/01/21 02:44:38;;;;;;;22.87;11.35;;;;;;;-0.02;100.00;98064.09;4533475;31;20091;-72
2023/01/21 02:47:08;;;;;;;27.08;11.55;;;;;;;-0.05;100.00;98059.13;4532511;31;20079;-72
2023/01/21 02:49:39;;;;;;;33.85;12.25;;;;;;;0.04;100.00;98060.34;4533583;31;20142;-72
2023/01/21 02:52:07;;;;;;;32.90;14.52;;;;;;;0.01;100.00;98057.94;4531985;31;20159;-72
2023/01/21 02:54:40;;;;;;;24.58;10.98;;;;;;;-0.07;100.00;98053.22;4533479;31;20146;-72
2023/01/21 02:57:17;;;;;;;26.17;11.90;;;;;;;-0.13;100.00;98051.00;4533472;31;20456;-72
2023/01/21 02:59:46;;;;;;;27.30;11.60;;;;;;;-0.13;100.00;98046.69;4532129;31;20554;-72
2023/01/21 03:02:23;;;;;;;29.08;12.73;;;;;;;-0.02;100.00;98028.84;4533295;31;20131;-72
2023/01/21 03:04:56;;;;;;;31.50;13.50;;;;;;;-0.11;100.00;98046.59;4533370;31;20088;-72
2023/01/21 03:07:32;;;;;;;28.77;11.82;;;;;;;0.01;100.00;98032.19;4533410;31;20532;-72
2023/01/21 03:10:30;;;;;;;27.23;12.98;;;;;;;-0.06;100.00;98031.69;4524703;31;20075;-72
2023/01/21 03:13:06;;;;;;;32.78;14.90;;;;;;;0.01;100.00;98033.00;4515356;31;20108;-72
2023/01/21 03:18:42;;;;;;;34.88;14.50;;;;;;;0.06;100.00;98050.75;4516416;31;20155;-72
2023/01/21 03:21:16;;;;;;;26.83;12.27;;;;;;;0.09;100.00;98051.44;4517093;31;20120;-72
2023/01/21 03:23:44;;;;;;;;;;;;;;;0.00;100.00;98067.41;4532567;31;20111;-72
2023/01/21 03:26:14;;;;;;;26.83;11.98;;;;;;;0.08;100.00;98061.81;4533463;31;20030;-72
2023/01/21 03:28:46;;;;;;;30.83;12.90;;;;;;;0.07;100.00;98063.56;4532286;31;20092;-72
2023/01/21 03:31:19;;;;;;;29.10;13.70;;;;;;;0.13;100.00;98068.34;4532014;31;20091;-72
2023/01/21 03:33:48;;;;;;;30.98;13.82;;;;;;;0.12;100.00;98071.88;4533176;31;20511;-72
2023/01/21 03:36:42;;;;;;;35.05;14.87;;;;;;;0.13;100.00;98072.69;4532093;31;20126;-72
2023/01/21 03:39:48;;;;;;;33.00;14.10;;;;;;;0.16;100.00;98078.47;4532631;31;20092;-72
2023/01/21 03:42:16;;;;;;;31.37;14.30;;;;;;;0.28;100.00;98084.66;4467273;32;20109;-72
2023/01/21 03:44:44;;;;;;;35.05;14.65;;;;;;;0.26;100.00;98093.38;4467476;32;20181;-72
2023/01/21 03:47:24;;;;;;;27.85;10.90;;;;;;;0.08;100.00;98101.28;4467082;32;20108;-72
2023/01/21 03:50:08;;;;;;;35.25;13.93;;;;;;;0.20;100.00;98093.75;4467236;32;20119;-72
2023/01/21 03:52:39;;;;;;;34.90;14.25;;;;;;;0.09;100.00;98099.53;4454170;32;20084;-72
2023/01/21 03:55:07;;;;;;;30.88;14.27;;;;;;;0.13;100.00;98093.28;4454433;32;20108;-72
2023/01/21 03:57:34;;;;;;;30.80;12.80;;;;;;;0.26;100.00;98095.97;4467271;32;20153;-72
2023/01/21 04:00:01;;;;;;;31.27;14.13;;;;;;;0.24;100.00;98105.53;4454657;32;20170;-72
2023/01/21 04:02:30;;;;;;;33.90;14.13;;;;;;;0.11;100.00;98108.00;4467326;32;20097;-73
2023/01/21 04:04:58;;;;;;;36.35;13.65;;;;;;;0.20;100.00;98107.47;4467267;32;20131;-72
2023/01/21 04:07:25;;;;;;;37.65;14.95;;;;;;;0.19;100.00;98116.09;4467201;32;20716;-72
2023/01/21 04:09:52;;;;;;;33.85;15.10;;;;;;;0.22;100.00;98120.25;4460758;32;20605;-72
2023/01/21 04:12:19;;;;;;;35.38;14.57;;;;;;;0.21;100.00;98126.31;4451334;32;20498;-72
2023/01/21 04:14:46;;;;;;;33.80;15.00;;;;;;;0.26;100.00;98125.16;4451711;32;20189;-72
2023/01/21 04:17:13;;;;;;;31.10;13.40;;;;;;;0.18;100.00;98129.91;4451434;32;20192;-72
2023/01/21 04:19:41;;;;;;;34.03;14.75;;;;;;;0.14;100.00;98118.94;4498644;31;20114;-72
2023/01/21 04:22:08;;;;;;;36.15;13.35;;;;;;;0.19;100.00;98123.84;4524146;31;20166;-72
2023/01/21 04:24:35;;;;;;;32.03;13.52;;;;;;;0.16;100.00;98129.16;4532947;31;20126;-72
2023/01/21 04:27:02;;;;;;;28.60;12.60;;;;;;;0.21;100.00;98121.16;4532767;31;20099;-72
2023/01/21 04:29:29;;;;;;;29.95;14.77;;;;;;;0.30;100.00;98121.50;4532954;31;20151;-72
2023/01/21 04:31:56;;;;;;;31.20;13.88;;;;;;;0.34;100.00;98122.94;4532876;31;20130;-73
2023/01/21 04:34:23;;;;;;;34.55;13.55;;;;;;;0.31;100.00;98123.12;4532873;31;20515;-72
2023/01/21 04:36:50;;;;;;;33.00;13.15;;;;;;;0.32;100.00;98135.09;4532720;31;20092;-72
2023/01/21 04:39:18;;;;;;;26.65;11.93;;;;;;;0.35;100.00;98144.41;4532608;31;20425;-72
2023/01/21 04:41:45;;;;;;;31.70;14.00;;;;;;;0.21;100.00;98145.16;4532560;31;20590;-72
2023/01/21 04:44:12;;;;;;;31.00;13.30;;;;;;;0.38;100.00;98151.97;4532711;31;20587;-72
2023/01/21 04:46:39;;;;;;;34.00;13.80;;;;;;;0.39;100.00;98151.03;4532761;31;20115;-72
2023/01/21 04:49:06;;;;;;;30.80;12.82;;;;;;;0.45;100.00;98155.00;4532546;31;20461;-72
2023/01/21 04:51:33;;;;;;;33.20;14.02;;;;;;;0.34;100.00;98160.78;4531577;31;20108;-72
2023/01/21 04:54:00;;;;;;;33.92;14.55;;;;;;;0.17;100.00;98157.41;4532256;31;20114;-72
2023/01/21 04:56:28;;;;;;;31.90;12.43;;;;;;;0.10;100.00;98156.09;4532683;31;20451;-72
2023/01/21 04:58:55;;;;;;;38.15;15.70;;;;;;;0.06;100.00;98158.94;4532747;31;20094;-72
2023/01/21 05:01:22;;;;;;;36.38;14.73;;;;;;;0.01;100.00;98164.34;4532298;31;20498;-72
2023/01/21 05:03:49;;;;;;;33.42;14.02;;;;;;;0.10;100.00;98158.66;4532503;31;20103;-72
2023/01/21 05:06:16;;;;;;;34.42;14.95;;;;;;;-0.12;100.00;98165.94;4532384;31;20134;-72
2023/01/21 05:08:43;;;;;;;36.05;14.48;;;;;;;0.06;100.00;98169.22;4532430;31;20174;-72
2023/01/21 05:11:14;;;;;;;33.88;15.30;;;;;;;-0.09;100.00;98170.91;4532437;31;20095;-72
2023/01/21 05:13:41;;;;;;;38.03;14.75;;;;;;;-0.07;100.00;98161.38;4532470;31;20079;-72
2023/01/21 05:16:08;;;;;;;38.83;15.40;;;;;;;0.01;100.00;98166.09;4532356;31;20711;-72
2023/01/21 05:18:37;;;;;;;32.85;15.75;;;;;;;0.15;100.00;98174.69;4532347;31;20099;-72
2023/01/21 05:21:04;;;;;;;33.38;14.55;;;;;;;0.08;100.00;98172.56;4532128;31;20095;-72
2023/01/21 05:23:32;;;;;;;33.83;15.38;;;;;;;0.12;100.00;98169.72;4532147;31;20397;-72
2023/01/21 05:25:59;;;;;;;37.45;15.70;;;;;;;0.02;100.00;98172.91;4532167;31;20166;-72
2023/01/21 05:28:26;;;;;;;41.13;16.83;;;;;;;0.02;100.00;98184.03;4532249;31;20091;-72
2023/01/21 05:30:53;;;;;;;34.10;15.25;;;;;;;0.05;100.00;98183.84;4532110;31;20087;-72
2023/01/21 05:33:25;;;;;;;36.97;15.30;;;;;;;0.07;100.00;98187.16;4532263;31;20141;-72
2023/01/21 05:35:52;;;;;;;31.75;14.30;;;;;;;0.12;100.00;98185.19;4532184;31;20201;-72
2023/01/21 05:38:19;;;;;;;33.30;13.80;;;;;;;0.13;100.00;98189.41;4531793;31;20110;-72
2023/01/21 05:40:46;;;;;;;32.28;14.15;;;;;;;0.20;100.00;98186.47;4532000;31;20087;-72
2023/01/21 05:43:13;;;;;;;31.85;14.07;;;;;;;0.29;100.00;98185.97;4531757;31;20483;-72
2023/01/21 05:45:40;;;;;;;34.83;15.15;;;;;;;0.27;100.00;98188.66;4531843;31;20151;-72
2023/01/21 05:48:07;;;;;;;42.62;14.98;;;;;;;0.27;100.00;98195.53;4531523;31;20130;-72
2023/01/21 05:50:37;;;;;;;34.97;15.07;;;;;;;0.31;100.00;98199.59;4531623;31;20436;-72
2023/01/21 05:53:04;;;;;;;34.33;15.60;;;;;;;0.22;100.00;98189.81;4531485;31;20099;-72
2023/01/21 05:55:31;;;;;;;30.95;13.77;;;;;;;0.19;100.00;98193.38;4531783;31;20118;-72
2023/01/21 05:57:58;;;;;;;28.05;12.73;;;;;;;0.12;100.00;98186.91;4531525;31;20114;-72
2023/01/21 06:00:25;;;;;;;31.58;12.43;;;;;;;0.09;100.00;98198.22;4531576;31;20095;-72
2023/01/21 06:02:52;;;;;;;31.62;14.20;;;;;;;0.15;100.00;98205.59;4532467;31;20125;-72
2023/01/21 06:05:19;;;;;;;25.75;11.75;;;;;;;0.16;100.00;98209.81;4532510;31;20103;-72
2023/01/21 06:07:46;;;;;;;33.35;11.60;;;;;;;0.21;100.00;98219.88;4533802;31;20174;-72
2023/01/21 06:10:14;;;;;;;22.67;11.98;;;;;;;0.26;100.00;98222.19;4533378;31;20095;-72
2023/01/21 06:12:42;;;;;;;28.77;11.98;;;;;;;0.19;100.00;98226.88;4533616;31;20777;-72
2023/01/21 06:15:09;;;;;;;25.90;11.75;;;;;;;0.16;100.00;98219.31;4533657;31;20096;-72
2023/01/21 06:17:39;;;;;;;28.38;11.90;;;;;;;0.15;100.00;98220.22;4533713;31;20468;-72
2023/01/21 06:20:07;;;;;;;28.17;12.52;;;;;;;0.30;100.00;98226.25;4533699;31;20083;-72
2023/01/21 06:22:35;;;;;;;25.17;11.57;;;;;;;0.48;100.00;98237.28;4533557;31;20100;-72
2023/01/21 06:25:02;;;;;;;24.45;11.25;;;;;;;0.44;100.00;98230.63;4533558;31;20096;-72
2023/01/21 06:27:29;;;;;;;25.15;11.20;;;;;;;0.47;100.00;98228.72;4533530;31;20083;-72
2023/01/21 06:29:56;;;;;;;29.12;11.50;;;;;;;0.57;100.00;98244.50;4533552;31;20087;-72
2023/01/21 06:32:23;;;;;;;23.58;11.63;;;;;;;0.47;100.00;98251.94;4533665;31;20091;-72
2023/01/21 06:34:51;;;;;;;23.27;10.75;;;;;;;0.55;100.00;98255.81;4533553;31;20167;-72
2023/01/21 06:37:18;;;;;;;24.33;11.50;;;;;;;0.62;100.00;98260.53;4533523;31;20125;-72
2023/01/21 06:39:45;;;;;;;26.95;12.55;;;;;;;0.62;100.00;98270.00;4533436;31;20095;-72
2023/01/21 06:42:12;;;;;;;23.75;11.27;;;;;;;0.55;100.00;98261.78;4533426;31;20091;-72
2023/01/21 06:44:39;;;;;;;25.67;12.13;;;;;;;0.49;100.00;98265.53;4533514;31;20158;-72
2023/01/21 06:47:06;;;;;;;21.73;9.98;;;;;;;0.54;100.00;98262.69;4533621;31;20087;-72
2023/01/21 06:49:34;;;;;;;25.00;11.18;;;;;;;0.55;100.00;98263.56;4533378;31;20083;-72
2023/01/21 06:52:01;;;;;;;26.33;10.27;;;;;;;0.46;100.00;98257.16;4533318;31;20123;-72
2023/01/21 06:54:28;;;;;;;25.30;10.20;;;;;;;0.51;100.00;98260.31;4533309;31;20527;-72
2023/01/21 06:56:56;;;;;;;25.58;11.27;;;;;;;0.44;100.00;98259.81;4533506;31;20166;-72
2023/01/21 06:59:23;;;;;;;27.50;10.23;;;;;;;0.44;100.00;98262.41;4533222;31;20118;-72
2023/01/21 07:01:51;;;;;;;21.75;10.15;;;;;;;0.44;100.00;98259.81;4533264;31;20122;-72
2023/01/21 07:04:18;;;;;;;21.20;9.57;;;;;;;0.45;100.00;98264.03;4533307;31;20488;-72
2023/01/21 07:06:45;;;;;;;20.40;9.68;;;;;;;0.41;100.00;98260.00;4533422;31;20593;-72
2023/01/21 07:09:12;;;;;;;24.00;10.45;;;;;;;0.47;100.00;98264.81;4533018;31;20151;-72
2023/01/21 07:11:39;;;;;;;22.98;9.90;;;;;;;0.56;100.00;98265.19;4533395;31;20091;-72
2023/01/21 07:14:06;;;;;;;21.80;9.88;;;;;;;0.59;100.00;98275.31;4532512;31;20413;-72
2023/01/21 07:16:33;;;;;;;24.65;10.15;;;;;;;0.64;100.00;98278.50;4533504;31;20091;-72
2023/01/21 07:19:01;;;;;;;22.30;9.05;;;;;;;0.67;100.00;98284.28;4533209;31;20187;-72
2023/01/21 07:21:28;;;;;;;25.58;9.75;;;;;;;0.70;100.00;98298.78;4533186;31;20125;-72
2023/01/21 07:23:55;;;;;;;26.35;9.85;;;;;;;0.67;100.00;98298.94;4533270;31;20118;-72
2023/01/21 07:26:22;;;;;;;25.65;11.05;;;;;;;0.78;100.00;98309.47;4533110;31;20075;-73
2023/01/21 07:28:49;;;;;;;23.30;10.15;;;;;;;0.86;100.00;98317.63;4533146;31;20484;-72
2023/01/21 07:31:17;;;;;;;25.20;10.23;;;;;;;0.81;100.00;98327.34;4533047;31;20117;-72
2023/01/21 07:33:44;;;;;;;25.00;10.00;;;;;;;0.92;100.00;98328.50;4533204;31;20110;-72
2023/01/21 07:36:11;;;;;;;26.92;12.23;;;;;;;0.94;100.00;98339.53;4533203;31;20091;-72
2023/01/21 07:38:38;;;;;;;19.20;10.38;;;;;;;0.75;100.00;98337.19;4532860;31;20095;-72
2023/01/21 07:41:05;;;;;;;24.92;11.30;;;;;;;0.85;100.00;98330.59;4533561;31;20118;-73
2023/01/21 07:43:32;;;;;;;22.80;11.32;;;;;;;0.86;100.00;98339.97;4533117;31;20115;-72
2023/01/21 07:46:00;;;;;;;25.92;12.40;;;;;;;0.95;100.00;98348.94;4532877;31;20131;-72
2023/01/21 07:48:27;;;;;;;26.40;12.27;;;;;;;0.92;100.00;98341.38;4532902;31;20091;-72
2023/01/21 07:50:58;;;;;;;29.85;13.20;;;;;;;1.00;100.00;98346.91;4532962;31;20099;-72
2023/01/21 07:53:25;;;;;;;27.48;11.45;;;;;;;1.02;100.00;98345.09;4533261;31;20091;-72
2023/01/21 07:55:54;;;;;;;26.50;10.02;;;;;;;1.06;100.00;98349.19;4533213;31;20483;-72
2023/01/21 07:58:21;;;;;;;20.00;9.13;;;;;;;1.00;100.00;98355.50;4532917;31;20126;-72
2023/01/21 08:00:48;;;;;;;22.10;10.35;;;;;;;1.12;100.00;98361.72;4532970;31;20159;-72
2023/01/21 08:03:18;;;;;;;21.58;10.65;;;;;;;1.09;100.00;98367.06;4532951;31;20119;-72
2023/01/21 08:05:45;;;;;;;25.60;10.55;;;;;;;1.13;100.00;98365.94;4531618;31;20879;-72
2023/01/21 08:08:13;;;;;;;25.02;10.23;;;;;;;1.17;100.00;98370.00;4533205;31;20125;-72
2023/01/21 08:10:40;;;;;;;26.17;10.48;;;;;;;1.22;100.00;98365.41;4532581;31;20099;-72
2023/01/21 08:13:07;;;;;;;26.05;11.40;;;;;;;1.19;100.00;98364.78;4533066;31;20095;-72
2023/01/21 08:15:34;;;;;;;23.38;10.52;;;;;;;1.28;100.00;98366.00;4533042;31;20134;-72
2023/01/21 08:18:02;;;;;;;24.27;9.50;;;;;;;1.31;100.00;98368.41;4533191;31;20142;-71
2023/01/21 08:20:29;;;;;;;26.60;10.40;;;;;;;1.31;100.00;98370.97;4532958;31;20166;-71
2023/01/21 08:22:59;;;;;;;23.05;9.93;;;;;;;1.31;100.00;98364.06;4505435;31;20469;-71
2023/01/21 08:25:26;;;;;;;20.75;8.45;;;;;;;1.34;100.00;98365.62;4502472;31;20511;-72
2023/01/21 08:27:53;;;;;;;22.87;9.88;;;;;;;1.36;100.00;98358.62;4517020;31;20178;-71
2023/01/21 08:30:21;;;;;;;21.60;9.13;;;;;;;1.41;100.00;98366.94;4516497;31;20087;-71
2023/01/21 08:32:48;;;;;;;19.37;8.70;;;;;;;1.46;100.00;98364.91;4516853;31;20142;-72
2023/01/21 08:35:15;;;;;;;23.45;9.50;;;;;;;1.32;100.00;98370.87;4516514;31;20091;-71
2023/01/21 08:37:43;;;;;;;20.45;9.25;;;;;;;1.42;100.00;98378.91;4516664;31;20359;-71
2023/01/21 08:40:11;;;;;;;20.48;9.82;;;;;;;1.57;100.00;98390.91;4516432;31;20119;-71
2023/01/21 08:42:38;;;;;;;25.77;9.63;;;;;;;1.59;100.00;98385.69;4516779;31;20432;-71
2023/01/21 08:45:06;;;;;;;26.17;10.93;;;;;;;1.58;100.00;98391.78;4516620;31;20107;-71
2023/01/21 08:47:33;;;;;;;27.62;11.38;;;;;;;1.61;100.00;98393.34;4516872;31;20099;-71
2023/01/21 08:50:00;;;;;;;31.12;12.27;;;;;;;1.61;100.00;98393.34;4516311;31;20121;-71
2023/01/21 08:52:27;;;;;;;26.10;11.00;;;;;;;1.59;100.00;98398.59;4513743;31;86002;-71
2023/01/21 08:54:55;;;;;;;21.48;10.55;;;;;;;1.69;100.00;98398.88;4516744;31;20096;-71
2023/01/21 08:57:22;;;;;;;19.35;10.38;;;;;;;1.68;100.00;98399.78;4516499;31;20153;-70
2023/01/21 08:59:49;;;;;;;17.35;7.72;;;;;;;1.66;100.00;98394.72;4516459;31;20099;-70
2023/01/21 09:02:16;;;;;;;20.48;8.40;;;;;;;1.56;100.00;98393.59;4516417;31;20147;-71
2023/01/21 09:04:43;;;;;;;22.10;8.55;;;;;;;1.71;100.00;98402.19;4516272;31;20117;-71
2023/01/21 09:07:10;;;;;;;18.35;8.40;;;;;;;1.81;100.00;98399.91;4516245;31;20179;-71
2023/01/21 09:09:38;;;;;;;20.98;9.32;;;;;;;1.65;100.00;98399.97;4520761;31;20096;-71
2023/01/21 09:12:05;;;;;;;19.55;8.38;;;;;;;1.75;100.00;98403.69;4532430;31;20087;-71
2023/01/21 09:14:32;;;;;;;20.17;8.75;;;;;;;1.90;100.00;98404.53;4532234;31;20084;-71
2023/01/21 09:17:00;;;;;;;19.67;8.90;;;;;;;1.83;100.00;98404.03;4517764;31;20103;-71
2023/01/21 09:19:27;;;;;;;19.20;8.73;;;;;;;1.68;100.00;98398.06;4532109;31;20084;-71
2023/01/21 09:21:55;;;;;;;21.25;8.68;;;;;;;1.81;100.00;98399.91;4526043;31;20486;-72
2023/01/21 09:24:23;;;;;;;20.85;8.65;;;;;;;1.95;100.00;98402.50;4516138;31;20107;-71
2023/01/21 09:26:51;;;;;;;18.83;8.05;;;;;;;2.28;100.00;98404.78;4516338;31;20433;-73
2023/01/21 09:29:18;;;;;;;18.42;7.28;;;;;;;2.03;100.00;98409.78;4515973;31;20091;-72
2023/01/21 09:31:45;;;;;;;19.92;8.35;;;;;;;2.21;100.00;98402.66;4515931;31;20154;-72
2023/01/21 09:34:12;;;;;;;19.08;8.50;;;;;;;2.15;100.00;98401.31;4515944;31;20182;-73
2023/01/21 09:36:39;;;;;;;17.87;8.15;;;;;;;2.21;100.00;98405.25;4516026;31;20104;-72
2023/01/21 09:39:07;;;;;;;18.00;7.65;;;;;;;2.10;100.00;98400.75;4517665;31;20133;-72
2023/01/21 09:41:41;;;;;;;17.12;7.55;;;;;;;2.04;100.00;98395.94;4518076;31;20084;-73
2023/01/21 09:44:27;;;;;;;15.82;6.97;;;;;;;2.11;100.00;98407.59;4516895;31;20585;-72
2023/01/21 09:47:21;;;;;;;20.60;8.52;;;;;;;2.17;100.00;98407.22;4518084;31;20091;-73
2023/01/21 09:49:52;;;;;;;16.17;7.40;;;;;;;1.99;100.00;98400.56;4517937;31;20083;-73
2023/01/21 09:52:29;;;;;;;18.05;8.52;;;;;;;2.04;100.00;98401.13;4516660;31;20095;-73
2023/01/21 09:54:57;;;;;;;19.35;8.32;;;;;;;2.22;100.00;98394.00;4517958;31;20095;-73
2023/01/21 09:57:42;;;;;;;19.87;8.85;;;;;;;2.47;100.00;98404.50;4516647;31;20524;-73
2023/01/21 10:00:13;;;;;;;18.80;8.80;;;;;;;2.46;100.00;98400.25;4516568;31;20104;-73
2023/01/21 10:03:01;;;;;;;23.30;9.95;;;;;;;2.74;100.00;98403.72;4517919;31;20440;-73
2023/01/21 10:05:52;;;;;;;22.70;9.80;;;;;;;2.51;100.00;98410.28;4517905;31;20179;-73
2023/01/21 10:08:22;;;;;;;26.25;9.85;;;;;;;2.10;100.00;98405.91;4516691;31;20148;-74
2023/01/21 10:11:31;;;;;;;25.62;10.32;;;;;;;2.04;100.00;98401.13;4530198;31;20095;-74
2023/01/21 10:14:21;;;;;;;21.27;8.85;;;;;;;2.15;100.00;98411.66;4533743;31;20147;-74
2023/01/21 10:17:13;;;;;;;22.25;9.15;;;;;;;2.14;100.00;98407.41;4533842;31;20099;-74
2023/01/21 10:19:49;;;;;;;24.83;9.05;;;;;;;2.24;100.00;98405.91;4533693;31;20162;-75
2023/01/21 10:22:22;;;;;;;23.55;9.82;;;;;;;2.21;100.00;98408.69;4510696;31;20762;-75
2023/01/21 10:24:59;;;;;;;24.02;9.63;;;;;;;2.16;100.00;98412.47;4503568;31;20163;-75
2023/01/21 10:27:27;;;;;;;22.27;9.23;;;;;;;2.14;100.00;98407.41;4503341;31;20105;-74
2023/01/21 10:29:57;;;;;;;20.40;8.98;;;;;;;2.31;100.00;98404.59;4517513;31;20174;-75
2023/01/21 10:32:26;;;;;;;17.87;8.15;;;;;;;2.54;100.00;98410.09;4503440;31;20191;-75
2023/01/21 10:34:55;;;;;;;21.50;9.60;;;;;;;2.58;100.00;98413.34;4517717;31;20125;-75
2023/01/21 10:37:28;;;;;;;19.40;8.82;;;;;;;2.77;100.00;98416.44;4503600;31;20121;-75
2023/01/21 10:40:41;;;;;;;22.08;10.13;;;;;;;2.64;100.00;98418.13;4517541;31;20072;-75
2023/01/21 10:43:42;;;;;;;20.92;10.07;;;;;;;2.71;100.00;98416.84;4505697;31;20160;-74
2023/01/21 10:46:21;;;;;;;21.37;9.63;;;;;;;2.60;100.00;98419.25;4435911;32;20102;-74
2023/01/21 10:48:54;;;;;;;26.02;10.65;;;;;;;2.55;100.00;98424.69;4441531;32;20186;-74
2023/01/21 10:51:36;;;;;;;22.67;9.98;;;;;;;2.40;100.00;98428.25;4436413;32;20168;-74
2023/01/21 10:54:54;;;;;;;25.12;9.57;;;;;;;2.44;100.00;98430.53;4436663;32;20160;-74
2023/01/21 10:57:28;;;;;;;19.27;9.57;;;;;;;2.34;100.00;98424.25;4390722;32;20140;-74
2023/01/21 10:59:58;;;;;;;19.87;9.20;;;;;;;2.34;100.00;98420.88;4390794;32;20094;-74
2023/01/21 11:02:29;;;;;;;19.12;9.10;;;;;;;2.45;100.00;98414.13;4378264;32;20098;-74
2023/01/21 11:05:01;;;;;;;17.30;8.40;;;;;;;2.28;100.00;98419.47;4391272;32;20527;-74
2023/01/21 11:07:32;;;;;;;21.65;8.63;;;;;;;2.36;100.00;98419.81;4390908;32;20102;-74
2023/01/21 11:10:01;;;;;;;23.00;9.93;;;;;;;2.51;100.00;98409.47;4398217;32;20097;-74
2023/01/21 11:12:29;;;;;;;18.70;8.85;;;;;;;2.54;100.00;98410.09;4393128;32;20186;-74
2023/01/21 11:14:57;;;;;;;23.30;9.38;;;;;;;2.71;100.00;98414.25;4405820;32;20174;-74
2023/01/21 11:17:45;;;;;;;19.27;8.60;;;;;;;2.43;100.00;98410.78;4405714;32;20124;-74
2023/01/21 11:20:17;;;;;;;20.25;9.43;;;;;;;2.60;100.00;98412.31;4393235;32;20496;-74
2023/01/21 11:22:49;;;;;;;21.37;9.43;;;;;;;2.67;100.00;98412.78;4434751;31;20124;-74
2023/01/21 11:25:25;;;;;;;18.30;9.10;;;;;;;2.69;100.00;98407.50;4498791;31;20641;-74
2023/01/21 11:27:52;;;;;;;19.65;8.68;;;;;;;2.61;100.00;98411.38;4498934;31;20524;-74
2023/01/21 11:30:37;;;;;;;21.70;8.98;;;;;;;2.68;100.00;98417.03;4501377;31;20166;-75
2023/01/21 11:33:25;;;;;;;21.48;9.63;;;;;;;2.72;100.00;98399.53;4504289;31;20084;-74
2023/01/21 11:35:53;;;;;;;20.85;8.65;;;;;;;2.79;100.00;98400.81;4502556;31;20087;-73